Time;durP1;ratioP1;P1;durP2;ratioP2;P2;SDS_P1;SDS_P2;PMS_P1;PMS_P2;Temp;Humidity;BMP_temperature;BMP_pressure;BME280_temperature;BME280_humidity;BME280_pressure;Samples;Min_cycle;Max_cycle;Signal;HPM_P1;HPM_P2
2022/02/14 00:02:11;;;;;;;8.13;4.22;;;7.70;99.90;;;;;;4982773;28;20490;-77
2022/02/14 00:04:38;;;;;;;31.17;13.57;;;7.70;99.90;;;;;;5000143;28;20038;-76
2022/02/14 00:07:04;;;;;;;8.65;3.85;;;7.60;99.90;;;;;;4998882;28;20027;-74
2022/02/14 00:09:31;;;;;;;10.15;3.70;;;7.70;99.90;;;;;;4959148;28;20045;-74
2022/02/14 00:11:57;;;;;;;9.80;2.75;;;7.70;99.90;;;;;;4997976;28;20034;-74
2022/02/14 00:14:24;;;;;;;8.48;2.72;;;7.70;99.90;;;;;;4982013;28;20039;-74
2022/02/14 00:16:50;;;;;;;9.00;2.40;;;7.70;99.90;;;;;;4982743;28;20804;-75
2022/02/14 00:19:16;;;;;;;5.88;2.85;;;7.70;99.90;;;;;;4981969;28;20046;-75
2022/02/14 00:21:43;;;;;;;8.40;2.30;;;7.70;99.90;;;;;;4998056;28;20514;-75
2022/02/14 00:24:09;;;;;;;10.15;2.78;;;7.70;99.90;;;;;;4998710;28;20033;-75
2022/02/14 00:26:37;;;;;;;6.05;2.05;;;7.80;99.90;;;;;;4996189;28;20038;-75
2022/02/14 00:29:04;;;;;;;10.48;3.22;;;7.80;99.90;;;;;;4998374;28;20069;-75
2022/02/14 00:31:30;;;;;;;5.05;1.75;;;7.80;99.90;;;;;;4995980;28;20034;-75
2022/02/14 00:33:57;;;;;;;5.05;2.80;;;7.90;99.90;;;;;;4967062;28;20046;-74
2022/02/14 00:36:24;;;;;;;8.15;2.78;;;7.90;99.90;;;;;;4999160;28;20042;-75
2022/02/14 00:38:51;;;;;;;7.45;2.72;;;8.00;99.90;;;;;;4996981;28;20041;-75
2022/02/14 00:41:18;;;;;;;7.25;2.55;;;8.10;99.90;;;;;;5000168;28;20030;-75
2022/02/14 00:43:44;;;;;;;9.02;2.35;;;8.10;99.90;;;;;;4983611;28;20038;-75
2022/02/14 00:46:11;;;;;;;6.32;2.10;;;8.20;99.90;;;;;;4967017;28;20030;-75
2022/02/14 00:48:37;;;;;;;4.55;1.63;;;8.20;99.90;;;;;;4998417;28;20030;-75
2022/02/14 00:51:05;;;;;;;7.10;1.80;;;8.20;99.90;;;;;;4997923;28;20034;-74
2022/02/14 00:53:31;;;;;;;7.35;1.88;;;8.20;99.90;;;;;;4981929;28;20042;-74
2022/02/14 00:55:58;;;;;;;8.45;2.30;;;8.20;99.90;;;;;;4996164;28;20042;-74
2022/02/14 00:58:24;;;;;;;5.60;2.10;;;8.20;99.90;;;;;;5000429;28;20040;-74
2022/02/14 01:00:51;;;;;;;5.18;2.17;;;8.20;99.90;;;;;;4997039;28;20049;-75
2022/02/14 01:03:17;;;;;;;5.10;1.73;;;8.20;99.90;;;;;;4959412;28;20404;-74
2022/02/14 01:05:43;;;;;;;6.03;2.28;;;8.30;99.90;;;;;;4980394;28;20034;-76
2022/02/14 01:08:10;;;;;;;5.78;1.75;;;8.30;99.90;;;;;;4991813;28;20500;-76
2022/02/14 01:10:37;;;;;;;6.20;1.92;;;8.30;99.90;;;;;;4977068;28;20038;-77
2022/02/14 01:13:03;;;;;;;6.18;1.65;;;8.30;99.90;;;;;;4997030;28;20132;-75
2022/02/14 01:15:30;;;;;;;3.30;1.35;;;8.30;99.90;;;;;;4973750;28;20061;-75
2022/02/14 01:17:56;;;;;;;5.30;2.00;;;8.30;99.90;;;;;;4993590;28;20041;-75
2022/02/14 01:20:23;;;;;;;6.65;1.60;;;8.30;99.90;;;;;;4977615;28;20161;-77
2022/02/14 01:22:50;;;;;;;5.63;1.70;;;8.30;99.90;;;;;;4998170;28;20035;-77
2022/02/14 01:25:17;;;;;;;3.95;1.70;;;8.30;99.90;;;;;;4977116;28;20034;-77
2022/02/14 01:27:43;;;;;;;4.63;1.50;;;8.30;99.90;;;;;;4997463;28;20038;-76
2022/02/14 01:30:11;;;;;;;5.70;1.85;;;8.30;99.90;;;;;;4964525;28;20038;-76
2022/02/14 01:32:37;;;;;;;6.20;1.92;;;8.40;99.90;;;;;;5000053;28;20049;-77
2022/02/14 01:35:05;;;;;;;3.45;1.58;;;8.40;99.90;;;;;;4998590;28;20042;-76
2022/02/14 01:37:32;;;;;;;6.28;2.05;;;8.40;99.90;;;;;;4981263;28;20038;-77
2022/02/14 01:40:00;;;;;;;6.22;1.83;;;8.40;99.90;;;;;;4979317;28;20057;-77
2022/02/14 01:42:26;;;;;;;6.43;1.88;;;8.50;99.90;;;;;;4967906;28;20056;-77
2022/02/14 01:44:53;;;;;;;4.10;1.45;;;8.50;99.90;;;;;;4980300;28;20034;-77
2022/02/14 01:47:22;;;;;;;4.43;1.60;;;8.60;99.90;;;;;;4998848;28;20049;-77
2022/02/14 01:49:49;;;;;;;6.28;1.85;;;8.60;99.90;;;;;;4996199;28;20445;-77
2022/02/14 01:52:16;;;;;;;4.00;1.30;;;8.60;99.90;;;;;;5000719;28;20041;-76
2022/02/14 01:54:45;;;;;;;6.35;1.92;;;8.60;99.90;;;;;;4997074;28;20042;-76
2022/02/14 01:57:13;;;;;;;6.57;2.05;;;8.60;99.90;;;;;;4983516;28;20621;-76
2022/02/14 01:59:41;;;;;;;6.53;1.73;;;8.60;99.90;;;;;;4963943;28;20039;-77
2022/02/14 02:02:09;;;;;;;4.63;1.10;;;8.60;99.90;;;;;;4981777;28;20486;-76
2022/02/14 02:04:36;;;;;;;4.43;1.10;;;8.50;99.90;;;;;;4962614;28;20034;-77
2022/02/14 02:07:04;;;;;;;4.18;1.30;;;8.50;99.90;;;;;;4998622;28;20038;-77
2022/02/14 02:09:31;;;;;;;6.03;1.75;;;8.60;99.90;;;;;;4994115;28;20069;-77
2022/02/14 02:14:42;;;;;;;5.30;1.35;;;8.60;99.90;;;;;;4994387;28;20034;-76
2022/02/14 02:17:10;;;;;;;5.75;1.70;;;8.60;99.90;;;;;;4978055;28;20033;-77
2022/02/14 02:19:36;;;;;;;4.45;1.48;;;8.60;99.90;;;;;;4996795;28;20061;-76
2022/02/14 02:22:03;;;;;;;4.45;1.40;;;8.60;99.90;;;;;;4980044;28;20125;-76
2022/02/14 02:24:33;;;;;;;6.07;1.38;;;8.60;99.90;;;;;;4998238;28;20030;-75
2022/02/14 02:27:03;;;;;;;7.68;1.65;;;8.60;99.90;;;;;;4996632;28;20030;-75
2022/02/14 02:29:31;;;;;;;3.83;1.33;;;8.60;99.90;;;;;;4998790;28;20042;-76
2022/02/14 02:31:58;;;;;;;6.35;1.30;;;8.60;99.90;;;;;;4964279;28;20034;-77
2022/02/14 02:34:24;;;;;;;4.07;1.10;;;8.60;99.90;;;;;;4981152;28;20038;-77
2022/02/14 02:36:57;;;;;;;7.50;1.42;;;8.60;99.90;;;;;;4976282;28;20065;-77
2022/02/14 02:39:24;;;;;;;6.32;1.38;;;8.60;99.90;;;;;;4995869;28;20060;-75
2022/02/14 02:41:52;;;;;;;5.13;1.73;;;8.70;99.90;;;;;;4996961;28;20034;-77
2022/02/14 02:44:20;;;;;;;6.93;1.58;;;8.60;99.90;;;;;;4982747;28;20041;-77
2022/02/14 02:46:47;;;;;;;4.65;1.80;;;8.70;99.90;;;;;;4982705;28;20050;-77
2022/02/14 02:49:19;;;;;;;5.10;1.05;;;8.70;99.90;;;;;;4978051;28;20041;-76
2022/02/14 02:51:49;;;;;;;5.40;1.45;;;8.70;99.90;;;;;;4979583;28;20042;-77
2022/02/14 02:54:16;;;;;;;3.70;0.90;;;8.70;99.90;;;;;;4992983;28;20486;-76
2022/02/14 02:56:45;;;;;;;6.65;1.95;;;8.70;99.90;;;;;;4977697;28;20037;-77
2022/02/14 02:59:13;;;;;;;4.25;1.38;;;8.70;99.90;;;;;;4994032;28;20068;-77
2022/02/14 03:01:41;;;;;;;5.13;1.20;;;8.60;99.90;;;;;;4997600;28;20045;-77
2022/02/14 03:04:10;;;;;;;4.78;1.17;;;8.60;99.90;;;;;;4992872;28;20385;-77
2022/02/14 03:06:37;;;;;;;7.43;1.00;;;8.60;99.90;;;;;;4994531;28;20045;-77
2022/02/14 03:09:05;;;;;;;4.40;1.17;;;8.60;99.90;;;;;;4996449;28;20042;-76
2022/02/14 03:11:32;;;;;;;4.30;1.25;;;8.50;99.90;;;;;;4978146;28;20037;-77
2022/02/14 03:13:59;;;;;;;12.32;1.83;;;8.50;99.90;;;;;;4995006;28;20030;-77
2022/02/14 03:16:26;;;;;;;5.00;1.27;;;8.50;99.90;;;;;;4992643;28;20042;-76
2022/02/14 03:18:52;;;;;;;4.72;1.73;;;8.50;99.90;;;;;;4978025;28;20045;-77
2022/02/14 03:21:19;;;;;;;5.47;1.02;;;8.50;99.90;;;;;;4993020;28;20060;-77
2022/02/14 03:23:47;;;;;;;5.80;1.63;;;8.50;99.90;;;;;;4995048;28;20038;-76
2022/02/14 03:26:17;;;;;;;2.70;1.00;;;8.50;99.90;;;;;;4994720;28;20033;-76
2022/02/14 03:28:44;;;;;;;4.10;1.10;;;8.60;99.90;;;;;;4991168;28;20474;-77
2022/02/14 03:31:11;;;;;;;7.38;1.77;;;8.60;99.90;;;;;;4995618;28;20057;-77
2022/02/14 03:33:38;;;;;;;4.70;1.23;;;8.60;99.90;;;;;;4992439;28;20393;-77
2022/02/14 03:36:06;;;;;;;7.93;1.75;;;8.70;99.90;;;;;;4996361;28;20038;-77
2022/02/14 03:38:33;;;;;;;4.95;1.30;;;8.70;99.90;;;;;;4993983;28;20037;-77
2022/02/14 03:41:03;;;;;;;4.25;1.02;;;8.70;99.90;;;;;;4988119;28;20034;-74
2022/02/14 03:43:29;;;;;;;6.47;1.27;;;8.70;99.90;;;;;;4977579;28;20030;-77
2022/02/14 03:45:56;;;;;;;5.53;1.33;;;8.80;99.90;;;;;;4984046;28;20042;-77
2022/02/14 03:48:23;;;;;;;4.25;1.25;;;8.80;99.90;;;;;;4996597;28;20049;-77
2022/02/14 03:50:50;;;;;;;5.03;0.90;;;8.90;99.90;;;;;;5001237;28;20037;-77
2022/02/14 03:53:17;;;;;;;8.70;1.13;;;8.90;99.90;;;;;;4998483;28;20038;-77
2022/02/14 03:55:43;;;;;;;4.88;1.25;;;9.00;99.90;;;;;;4978624;28;20137;-75
2022/02/14 03:58:10;;;;;;;4.28;1.05;;;9.00;99.90;;;;;;4980732;28;20053;-75
2022/02/14 04:00:37;;;;;;;7.70;1.33;;;9.00;99.90;;;;;;4982762;28;20034;-75
2022/02/14 04:03:03;;;;;;;4.70;1.15;;;9.10;99.90;;;;;;4981289;28;20034;-74
2022/02/14 04:05:32;;;;;;;6.63;1.35;;;9.10;99.90;;;;;;4999675;28;20045;-75
2022/02/14 04:07:59;;;;;;;3.97;1.00;;;9.20;99.90;;;;;;4990323;28;20026;-75
2022/02/14 04:10:26;;;;;;;4.55;1.05;;;9.20;99.90;;;;;;4987402;28;20385;-74
2022/02/14 04:12:54;;;;;;;7.15;1.02;;;9.30;99.90;;;;;;4978066;28;20045;-74
2022/02/14 04:15:21;;;;;;;6.95;1.35;;;9.30;99.90;;;;;;4994443;28;20038;-74
2022/02/14 04:17:48;;;;;;;3.78;1.35;;;9.30;99.90;;;;;;4962461;28;20042;-77
2022/02/14 04:20:15;;;;;;;8.20;1.85;;;9.40;99.90;;;;;;4999220;28;20038;-76
2022/02/14 04:22:42;;;;;;;4.05;1.15;;;9.40;99.90;;;;;;4987372;28;20034;-77
2022/02/14 04:25:10;;;;;;;4.68;0.80;;;9.40;99.90;;;;;;4997520;28;20490;-77
2022/02/14 04:27:36;;;;;;;6.15;0.93;;;9.40;99.90;;;;;;4964484;28;20046;-77
2022/02/14 04:30:04;;;;;;;5.20;1.00;;;9.50;99.90;;;;;;4999647;28;20038;-77
2022/02/14 04:32:31;;;;;;;9.73;1.08;;;9.40;99.90;;;;;;4994370;28;20045;-76
2022/02/14 04:34:58;;;;;;;4.93;1.08;;;9.50;99.90;;;;;;4998204;28;20038;-77
2022/02/14 04:37:25;;;;;;;3.85;0.93;;;9.50;99.90;;;;;;4979560;28;20073;-75
2022/02/14 04:39:52;;;;;;;2.67;0.75;;;9.50;99.90;;;;;;4999094;28;20041;-75
2022/02/14 04:42:19;;;;;;;5.07;0.70;;;9.60;99.90;;;;;;4982097;28;20034;-77
2022/02/14 04:44:45;;;;;;;5.97;0.80;;;9.60;99.90;;;;;;4974931;28;20030;-76
2022/02/14 04:47:11;;;;;;;3.40;0.90;;;9.60;99.90;;;;;;4977652;28;20041;-77
2022/02/14 04:49:38;;;;;;;3.38;0.70;;;9.60;99.90;;;;;;4980512;28;20033;-77
2022/02/14 04:52:04;;;;;;;5.93;1.15;;;9.70;99.90;;;;;;4965330;28;20041;-77
2022/02/14 04:54:31;;;;;;;3.42;0.82;;;9.70;99.90;;;;;;4993588;28;20042;-75
2022/02/14 04:56:57;;;;;;;6.47;1.75;;;9.70;99.90;;;;;;4995205;28;20482;-75
2022/02/14 04:59:24;;;;;;;6.47;0.70;;;9.80;99.90;;;;;;4978433;28;20042;-75
2022/02/14 05:01:50;;;;;;;2.58;0.70;;;9.80;99.90;;;;;;4994215;28;20478;-74
2022/02/14 05:04:17;;;;;;;5.07;0.80;;;9.80;99.90;;;;;;4976250;28;20478;-77
2022/02/14 05:06:43;;;;;;;3.40;0.70;;;9.90;99.90;;;;;;4993559;28;20389;-77
2022/02/14 05:09:10;;;;;;;2.85;0.70;;;9.90;99.90;;;;;;4996299;28;20530;-77
2022/02/14 05:11:37;;;;;;;4.28;0.80;;;9.90;99.90;;;;;;4976779;28;20046;-76
2022/02/14 05:14:04;;;;;;;3.45;0.60;;;9.90;99.90;;;;;;4975836;28;20520;-76
2022/02/14 05:16:30;;;;;;;4.90;1.02;;;9.90;99.90;;;;;;4995364;28;20232;-76
2022/02/14 05:18:57;;;;;;;3.55;0.93;;;10.00;99.90;;;;;;4994371;28;20034;-76
2022/02/14 05:21:23;;;;;;;3.95;0.70;;;10.00;99.90;;;;;;4978828;28;20034;-76
2022/02/14 05:23:51;;;;;;;2.38;0.60;;;10.00;99.90;;;;;;4967863;28;20049;-76
2022/02/14 05:26:19;;;;;;;1.38;0.60;;;10.00;99.90;;;;;;4959772;28;20065;-76
2022/02/14 05:28:45;;;;;;;1.88;0.55;;;10.10;99.90;;;;;;4992410;28;20026;-76
2022/02/14 05:31:12;;;;;;;2.33;0.60;;;10.00;99.90;;;;;;4993543;28;20038;-78
2022/02/14 05:33:38;;;;;;;4.53;0.90;;;10.00;99.90;;;;;;4981548;28;20046;-76
2022/02/14 05:36:05;;;;;;;3.20;0.70;;;10.00;99.90;;;;;;4992300;28;20035;-76
2022/02/14 05:38:32;;;;;;;1.83;0.60;;;10.10;99.90;;;;;;4995998;28;20045;-76
2022/02/14 05:40:58;;;;;;;3.72;0.68;;;10.10;99.90;;;;;;4990812;28;20506;-76
2022/02/14 05:43:25;;;;;;;2.83;0.60;;;10.10;99.90;;;;;;4990820;28;20034;-78
2022/02/14 05:45:51;;;;;;;2.22;0.70;;;10.10;99.90;;;;;;4989096;28;20046;-78
2022/02/14 05:48:17;;;;;;;2.20;0.60;;;10.20;99.90;;;;;;4993708;28;20066;-78
2022/02/14 05:50:44;;;;;;;1.92;0.70;;;10.20;99.90;;;;;;4992541;28;20513;-76
2022/02/14 05:53:10;;;;;;;3.13;0.50;;;10.20;99.90;;;;;;4991430;28;20045;-76
2022/02/14 05:55:37;;;;;;;3.97;0.60;;;10.20;99.90;;;;;;4978617;28;20050;-76
2022/02/14 05:58:03;;;;;;;2.72;0.50;;;10.20;99.90;;;;;;4996506;28;20038;-76
2022/02/14 06:00:30;;;;;;;4.60;0.70;;;10.20;99.90;;;;;;4978447;28;20050;-76
2022/02/14 06:02:56;;;;;;;2.70;0.52;;;10.30;99.90;;;;;;4958920;28;20043;-78
2022/02/14 06:05:23;;;;;;;3.55;0.60;;;10.20;99.90;;;;;;4991871;28;20054;-76
2022/02/14 06:07:49;;;;;;;2.35;0.70;;;10.20;99.90;;;;;;4998337;28;20025;-76
2022/02/14 06:10:15;;;;;;;3.20;0.85;;;10.30;99.90;;;;;;4957974;28;20407;-76
2022/02/14 06:12:43;;;;;;;3.70;0.80;;;10.30;99.90;;;;;;4980231;28;20042;-76
2022/02/14 06:15:10;;;;;;;5.13;0.60;;;10.30;99.90;;;;;;4998582;28;20478;-76
2022/02/14 06:17:38;;;;;;;4.05;0.50;;;10.30;99.90;;;;;;4992090;28;20053;-76
2022/02/14 06:20:06;;;;;;;3.03;0.45;;;10.30;99.90;;;;;;4998313;28;20052;-76
2022/02/14 06:22:40;;;;;;;4.40;0.95;;;10.30;99.90;;;;;;4998837;28;20508;-78
2022/02/14 06:25:06;;;;;;;3.42;0.60;;;10.40;99.90;;;;;;4988781;28;20402;-78
2022/02/14 06:27:33;;;;;;;3.00;0.60;;;10.40;99.90;;;;;;4994383;28;20033;-76
2022/02/14 06:29:59;;;;;;;4.20;1.35;;;10.40;99.90;;;;;;4997625;28;20485;-77
2022/02/14 06:32:26;;;;;;;5.18;1.88;;;10.40;99.90;;;;;;4957268;28;20042;-76
2022/02/14 06:34:52;;;;;;;5.88;1.55;;;10.40;99.90;;;;;;4979758;28;20042;-78
2022/02/14 06:37:20;;;;;;;6.60;2.20;;;10.40;99.90;;;;;;4973381;28;20041;-76
2022/02/14 06:39:46;;;;;;;3.92;1.00;;;10.40;99.90;;;;;;4996236;28;20050;-76
2022/02/14 06:42:13;;;;;;;3.70;0.93;;;10.40;99.90;;;;;;4998447;28;20038;-79
2022/02/14 06:44:39;;;;;;;2.90;0.88;;;10.40;99.90;;;;;;4977845;28;20026;-76
2022/02/14 06:47:06;;;;;;;4.22;0.60;;;10.40;99.90;;;;;;4977049;28;20034;-75
2022/02/14 06:49:33;;;;;;;2.78;0.70;;;10.40;99.90;;;;;;4997789;28;20037;-77
2022/02/14 06:51:59;;;;;;;11.85;5.57;;;10.40;99.90;;;;;;4968955;28;20030;-77
2022/02/14 06:54:26;;;;;;;5.13;1.25;;;10.40;99.90;;;;;;4978726;28;20493;-76
2022/02/14 06:56:53;;;;;;;1.98;0.68;;;10.50;99.90;;;;;;4977042;28;22074;-77
2022/02/14 06:59:19;;;;;;;3.83;1.30;;;10.50;99.90;;;;;;4980555;28;20038;-77
2022/02/14 07:01:46;;;;;;;2.83;0.60;;;10.50;99.90;;;;;;4980902;28;20026;-75
2022/02/14 07:04:12;;;;;;;2.50;0.73;;;10.50;99.90;;;;;;4975294;28;20049;-75
2022/02/14 07:06:39;;;;;;;4.03;0.75;;;10.50;99.90;;;;;;4975628;28;20045;-74
2022/02/14 07:09:05;;;;;;;2.38;0.65;;;10.50;99.90;;;;;;4994362;28;20026;-75
2022/02/14 07:11:31;;;;;;;1.92;0.50;;;10.50;99.90;;;;;;4993740;28;20030;-75
2022/02/14 07:13:58;;;;;;;1.38;0.60;;;10.50;99.90;;;;;;4995530;28;20046;-74
2022/02/14 07:16:24;;;;;;;2.78;0.60;;;10.50;99.90;;;;;;4975197;28;20038;-74
2022/02/14 07:18:51;;;;;;;4.18;0.77;;;10.50;99.90;;;;;;4976829;28;20030;-74
2022/02/14 07:21:19;;;;;;;4.07;0.70;;;10.50;99.90;;;;;;4971646;28;20259;-76
2022/02/14 07:23:46;;;;;;;1.65;0.50;;;10.50;99.90;;;;;;4989920;28;20034;-76
2022/02/14 07:26:12;;;;;;;3.42;0.88;;;10.50;99.90;;;;;;4978457;28;21062;-77
2022/02/14 07:28:39;;;;;;;4.63;0.55;;;10.60;99.90;;;;;;4975678;28;20534;-75
2022/02/14 07:31:05;;;;;;;2.30;0.68;;;10.60;99.90;;;;;;4989344;28;20402;-77
2022/02/14 07:33:33;;;;;;;2.17;0.60;;;10.60;99.90;;;;;;4988530;28;20049;-77
2022/02/14 07:35:59;;;;;;;4.55;0.60;;;10.70;99.90;;;;;;4993200;28;20042;-77
2022/02/14 07:38:26;;;;;;;2.22;0.50;;;10.70;99.90;;;;;;4992550;28;20046;-76
2022/02/14 07:40:52;;;;;;;2.00;0.63;;;10.70;99.90;;;;;;4963020;28;20042;-77
2022/02/14 07:43:19;;;;;;;3.30;0.70;;;10.70;99.90;;;;;;4975567;28;20038;-74
2022/02/14 07:45:45;;;;;;;5.55;0.60;;;10.70;99.90;;;;;;4969001;28;20046;-73
2022/02/14 07:48:12;;;;;;;3.65;0.60;;;10.70;99.90;;;;;;4985668;28;20047;-75
2022/02/14 07:50:38;;;;;;;1.83;0.50;;;10.70;99.90;;;;;;4977105;28;20060;-75
2022/02/14 07:53:05;;;;;;;2.55;0.50;;;10.70;99.90;;;;;;4968150;28;20043;-73
2022/02/14 07:55:31;;;;;;;3.30;0.80;;;10.80;99.90;;;;;;4974477;28;20053;-75
2022/02/14 07:57:57;;;;;;;2.70;0.40;;;10.80;99.90;;;;;;4991514;28;20481;-73
2022/02/14 08:00:24;;;;;;;6.53;0.95;;;10.80;99.90;;;;;;4978186;28;20060;-73
2022/02/14 08:02:50;;;;;;;5.25;1.40;;;10.80;99.90;;;;;;4979711;28;20031;-75
2022/02/14 08:05:17;;;;;;;1.75;0.52;;;10.80;99.90;;;;;;4963360;28;20050;-75
2022/02/14 08:07:43;;;;;;;5.70;0.85;;;10.80;99.90;;;;;;4964862;28;20592;-75
2022/02/14 08:10:10;;;;;;;5.07;0.70;;;10.80;99.90;;;;;;4988637;28;20039;-76
2022/02/14 08:12:37;;;;;;;5.13;1.33;;;10.80;99.90;;;;;;4954941;28;20054;-77
2022/02/14 08:15:06;;;;;;;3.08;0.93;;;10.80;99.90;;;;;;4958720;28;20045;-76
2022/02/14 08:17:33;;;;;;;3.00;0.50;;;10.90;99.90;;;;;;4986930;28;20049;-74
2022/02/14 08:20:03;;;;;;;4.75;0.88;;;10.90;99.90;;;;;;4961912;28;20065;-75
2022/02/14 08:22:30;;;;;;;1.38;0.52;;;10.80;99.90;;;;;;4992239;28;20044;-75
2022/02/14 08:24:57;;;;;;;2.67;1.38;;;10.80;99.90;;;;;;4979743;28;20026;-75
2022/02/14 08:27:24;;;;;;;1.83;0.45;;;10.60;99.90;;;;;;4978041;28;20039;-76
2022/02/14 08:29:51;;;;;;;2.15;0.20;;;10.30;99.90;;;;;;4996051;28;20046;-77
2022/02/14 08:32:18;;;;;;;1.48;0.10;;;10.10;99.90;;;;;;4998337;28;20035;-77
2022/02/14 08:34:44;;;;;;;2.63;0.45;;;9.90;99.90;;;;;;4959957;28;20512;-76
2022/02/14 08:37:12;;;;;;;2.67;0.20;;;9.70;99.90;;;;;;4964348;28;20053;-76
2022/02/14 08:39:38;;;;;;;1.17;0.40;;;9.50;99.90;;;;;;4960231;28;20421;-76
2022/02/14 08:42:06;;;;;;;1.35;0.43;;;9.40;99.90;;;;;;4978480;28;20043;-76
2022/02/14 08:44:33;;;;;;;1.38;0.40;;;9.30;99.90;;;;;;4988481;28;20026;-76
2022/02/14 08:46:59;;;;;;;1.48;0.55;;;9.30;99.90;;;;;;4991976;28;20031;-78
2022/02/14 08:49:27;;;;;;;0.85;0.28;;;9.30;99.90;;;;;;4961563;28;20508;-77
2022/02/14 08:51:54;;;;;;;3.30;1.40;;;9.20;99.90;;;;;;4975610;28;20486;-77
2022/02/14 08:54:21;;;;;;;1.08;0.50;;;9.20;99.90;;;;;;4993462;28;20042;-77
2022/02/14 08:56:47;;;;;;;1.60;0.40;;;9.20;99.90;;;;;;4992781;28;20497;-75
2022/02/14 08:59:19;;;;;;;2.28;0.63;;;9.20;99.90;;;;;;4974638;28;20038;-75
2022/02/14 09:01:48;;;;;;;1.15;0.30;;;9.20;99.90;;;;;;4978556;28;20390;-75
2022/02/14 09:04:16;;;;;;;1.10;0.40;;;9.30;99.90;;;;;;4990067;28;20047;-75
2022/02/14 09:06:43;;;;;;;1.38;0.30;;;9.30;99.90;;;;;;4973773;28;20533;-75
2022/02/14 09:09:10;;;;;;;0.93;0.28;;;9.30;99.90;;;;;;4990451;28;20493;-75
2022/02/14 09:11:41;;;;;;;0.68;0.38;;;9.40;99.90;;;;;;4991639;28;20481;-75
2022/02/14 09:14:08;;;;;;;1.40;0.40;;;9.40;99.90;;;;;;4992117;28;20046;-75
2022/02/14 09:16:35;;;;;;;1.38;0.50;;;9.50;99.90;;;;;;4994763;28;20031;-74
2022/02/14 09:19:02;;;;;;;0.85;0.20;;;9.50;99.90;;;;;;4993503;28;20363;-74
2022/02/14 09:21:28;;;;;;;0.77;0.20;;;9.60;99.90;;;;;;4980585;28;20505;-74
2022/02/14 09:23:55;;;;;;;1.33;0.20;;;9.60;99.90;;;;;;4992952;28;20039;-74
2022/02/14 09:26:23;;;;;;;0.47;0.20;;;9.60;99.90;;;;;;4993823;28;20037;-74
2022/02/14 09:28:50;;;;;;;0.63;0.20;;;9.50;99.90;;;;;;4988046;28;20042;-75
2022/02/14 09:31:16;;;;;;;0.70;0.20;;;9.40;99.90;;;;;;4996447;28;20045;-75
2022/02/14 09:33:43;;;;;;;1.92;0.20;;;9.30;99.90;;;;;;4977108;28;20038;-75
2022/02/14 09:36:10;;;;;;;0.30;0.20;;;9.30;99.90;;;;;;4961738;28;20039;-75
2022/02/14 09:38:36;;;;;;;4.68;1.45;;;9.30;99.90;;;;;;4979239;28;20039;-75
2022/02/14 09:41:04;;;;;;;1.02;0.38;;;9.30;99.90;;;;;;4991478;28;20465;-73
2022/02/14 09:43:34;;;;;;;2.33;0.30;;;9.30;99.90;;;;;;4990674;28;20031;-75
2022/02/14 09:46:00;;;;;;;0.85;0.20;;;9.30;99.90;;;;;;4989342;28;20045;-75
2022/02/14 09:48:32;;;;;;;0.82;0.40;;;9.30;99.90;;;;;;4971649;28;20034;-74
2022/02/14 09:50:58;;;;;;;1.23;0.30;;;9.40;99.90;;;;;;4990734;28;20035;-74
2022/02/14 09:53:25;;;;;;;0.70;0.30;;;9.40;99.90;;;;;;4977649;28;20045;-74
2022/02/14 09:55:51;;;;;;;1.05;0.40;;;9.50;99.90;;;;;;4974566;28;20038;-74
2022/02/14 09:58:18;;;;;;;0.95;0.50;;;9.60;99.90;;;;;;4988892;28;20398;-72
2022/02/14 10:00:44;;;;;;;1.20;0.77;;;9.70;99.90;;;;;;4990454;28;20045;-72
2022/02/14 10:03:19;;;;;;;3.30;0.80;;;9.80;99.90;;;;;;4976037;28;20046;-73
2022/02/14 10:05:51;;;;;;;4.10;0.93;;;9.80;99.90;;;;;;4993664;28;20042;-72
2022/02/14 10:08:23;;;;;;;4.53;1.10;;;9.90;99.90;;;;;;4993023;28;20034;-75
2022/02/14 10:10:51;;;;;;;2.35;1.35;;;9.90;99.90;;;;;;4977773;28;20034;-73
2022/02/14 10:13:29;;;;;;;2.80;1.85;;;10.10;99.90;;;;;;4978705;28;20057;-72
2022/02/14 10:15:56;;;;;;;2.80;1.75;;;10.30;99.90;;;;;;4991495;28;20057;-72
2022/02/14 10:18:28;;;;;;;2.70;2.08;;;10.60;99.90;;;;;;4977522;28;20034;-73
2022/02/14 10:21:25;;;;;;;2.22;1.92;;;10.70;99.90;;;;;;4994340;28;20042;-73
2022/02/14 10:24:02;;;;;;;3.35;1.70;;;11.00;99.90;;;;;;4992930;28;20045;-72
2022/02/14 10:26:34;;;;;;;3.10;1.50;;;11.20;99.90;;;;;;4994079;28;20037;-72
2022/02/14 10:29:10;;;;;;;2.42;1.38;;;11.30;99.90;;;;;;4974425;28;20038;-72
2022/02/14 10:31:45;;;;;;;3.75;1.40;;;11.40;99.90;;;;;;4981165;28;20490;-72
2022/02/14 10:34:13;;;;;;;1.77;1.42;;;11.50;99.90;;;;;;4972535;28;20053;-72
2022/02/14 10:36:45;;;;;;;2.47;1.70;;;11.70;99.90;;;;;;4992281;28;20140;-72
2022/02/14 10:39:23;;;;;;;1.88;1.33;;;11.90;99.90;;;;;;4989420;28;20409;-72
2022/02/14 10:42:11;;;;;;;1.20;0.75;;;12.00;99.90;;;;;;4992842;28;20053;-72
2022/02/14 10:47:35;;;;;;;2.45;0.80;;;12.50;99.90;;;;;;4991980;28;20034;-72
2022/02/14 10:50:06;;;;;;;2.17;0.60;;;12.80;99.90;;;;;;4972661;28;20026;-72
2022/02/14 10:52:56;;;;;;;2.97;1.15;;;12.90;99.90;;;;;;4991052;28;20030;-72
2022/02/14 10:55:28;;;;;;;1.98;0.90;;;13.00;99.90;;;;;;4971496;28;20046;-74
2022/02/14 10:57:56;;;;;;;3.72;1.00;;;13.20;99.90;;;;;;4988553;28;20510;-74
2022/02/14 11:00:30;;;;;;;1.88;0.90;;;13.30;99.90;;;;;;4993869;28;20034;-74
2022/02/14 11:03:01;;;;;;;2.15;1.13;;;13.50;99.90;;;;;;4971283;28;20042;-74
2022/02/14 11:05:29;;;;;;;2.83;0.75;;;13.50;99.90;;;;;;4990705;28;20073;-74
2022/02/14 11:07:56;;;;;;;2.50;0.80;;;13.20;99.90;;;;;;4972757;28;20516;-74
2022/02/14 11:10:23;;;;;;;2.55;1.00;;;13.00;99.90;;;;;;4994759;28;20030;-74
2022/02/14 11:12:55;;;;;;;3.30;0.80;;;12.80;99.90;;;;;;4988998;28;20401;-74
2022/02/14 11:15:26;;;;;;;2.53;0.95;;;12.40;99.90;;;;;;4992509;28;20037;-74
2022/02/14 11:18:02;;;;;;;3.08;1.02;;;12.20;99.90;;;;;;4975461;28;20038;-74
2022/02/14 11:20:28;;;;;;;2.50;1.00;;;12.00;99.90;;;;;;4977763;28;20041;-74
2022/02/14 11:22:58;;;;;;;3.75;1.00;;;11.80;99.90;;;;;;4989913;28;20033;-74
2022/02/14 11:25:54;;;;;;;3.92;1.05;;;11.70;99.90;;;;;;4971762;28;20038;-74
2022/02/14 11:28:36;;;;;;;2.13;1.02;;;11.50;99.90;;;;;;4930602;28;20505;-74
2022/02/14 11:31:09;;;;;;;6.85;1.02;;;11.40;99.90;;;;;;4990592;28;20524;-74
2022/02/14 11:33:39;;;;;;;5.47;1.45;;;11.30;99.90;;;;;;4990018;28;20037;-74
2022/02/14 11:36:09;;;;;;;3.58;1.00;;;11.30;99.90;;;;;;4989529;28;20501;-74
2022/02/14 11:39:03;;;;;;;4.32;1.35;;;11.30;99.90;;;;;;4989949;28;20533;-74
2022/02/14 11:41:35;;;;;;;3.47;1.05;;;11.40;99.90;;;;;;4990652;28;20037;-74
2022/02/14 11:44:17;;;;;;;3.38;1.10;;;11.50;99.90;;;;;;4988665;28;20048;-74
2022/02/14 11:46:46;;;;;;;3.03;0.90;;;11.60;99.90;;;;;;4990741;28;20034;-74
2022/02/14 11:49:12;;;;;;;3.38;0.93;;;11.60;99.90;;;;;;4993303;28;20102;-74
2022/02/14 11:51:53;;;;;;;3.58;0.95;;;11.50;99.90;;;;;;4991937;28;20042;-74
2022/02/14 11:54:43;;;;;;;2.20;0.77;;;11.50;99.90;;;;;;4992956;28;20096;-74
2022/02/14 11:57:10;;;;;;;4.75;1.13;;;11.50;99.90;;;;;;4989072;28;20045;-74
2022/02/14 11:59:37;;;;;;;2.53;0.90;;;11.60;99.90;;;;;;4992337;28;20045;-74
2022/02/14 12:02:04;;;;;;;4.88;0.70;;;11.60;99.90;;;;;;4996973;28;20044;-74
2022/02/14 12:04:31;;;;;;;4.93;0.70;;;11.50;99.90;;;;;;4993999;28;20050;-74
2022/02/14 12:07:17;;;;;;;2.20;0.80;;;11.40;99.90;;;;;;4994486;28;20034;-74
2022/02/14 12:09:58;;;;;;;2.75;0.80;;;11.40;99.90;;;;;;4991640;28;20041;-74
2022/02/14 12:12:46;;;;;;;1.95;0.63;;;11.70;99.90;;;;;;4992084;28;20497;-72
2022/02/14 12:20:49;;;;;;;;;;;12.40;99.90;;;;;;4995255;28;20409;-72
2022/02/14 12:23:43;;;;;;;4.53;0.40;;;13.00;99.90;;;;;;4997855;28;19910;-72
2022/02/14 12:26:11;;;;;;;3.15;0.40;;;13.50;99.90;;;;;;4993618;28;20038;-72
2022/02/14 12:28:39;;;;;;;4.90;0.50;;;14.00;99.90;;;;;;4993483;28;20362;-72
2022/02/14 12:31:06;;;;;;;2.08;0.35;;;14.10;99.90;;;;;;4963052;28;20033;-72
2022/02/14 12:33:33;;;;;;;2.45;0.50;;;13.90;99.90;;;;;;4979646;28;20049;-72
2022/02/14 12:36:03;;;;;;;2.40;0.40;;;13.50;99.90;;;;;;4978026;28;20042;-72
2022/02/14 12:38:31;;;;;;;2.88;0.40;;;13.20;99.90;;;;;;4994026;28;20034;-72
2022/02/14 12:41:12;;;;;;;5.32;0.50;;;12.80;99.90;;;;;;4995322;28;20049;-72
2022/02/14 12:43:43;;;;;;;4.97;0.60;;;12.60;99.90;;;;;;4980019;28;20038;-72
2022/02/14 12:46:12;;;;;;;2.33;0.40;;;12.40;99.90;;;;;;4979765;28;20041;-72
2022/02/14 12:48:40;;;;;;;4.25;0.40;;;12.10;99.90;;;;;;4995467;28;20029;-72
2022/02/14 12:51:19;;;;;;;1.83;0.30;;;11.80;99.90;;;;;;4980138;28;20050;-71
2022/02/14 12:53:52;;;;;;;3.67;0.30;;;11.60;99.90;;;;;;4994225;28;20030;-76
2022/02/14 12:56:20;;;;;;;3.10;0.30;;;11.40;99.90;;;;;;4993995;28;20033;-73
2022/02/14 12:58:53;;;;;;;2.08;0.40;;;11.40;99.90;;;;;;4994341;28;20030;-73
2022/02/14 13:01:21;;;;;;;3.03;0.30;;;11.40;99.90;;;;;;4992075;28;20050;-73
2022/02/14 13:04:08;;;;;;;3.03;0.70;;;11.40;99.90;;;;;;4991229;28;20385;-73
2022/02/14 13:06:41;;;;;;;1.98;0.30;;;11.50;99.90;;;;;;4980852;28;20134;-75
2022/02/14 13:09:23;;;;;;;1.58;0.30;;;11.60;99.90;;;;;;4990651;28;20034;-73
2022/02/14 13:11:53;;;;;;;2.45;0.70;;;11.70;99.90;;;;;;4991024;28;20030;-73